sensor_id;sensor_type;location;lat;lon;timestamp;temperature;humidity
429;DHT22;201;48.758;9.290;2023-06-14T00:00:17;15.80;1.00
429;DHT22;201;48.758;9.290;2023-06-14T00:02:43;15.80;1.00
429;DHT22;201;48.758;9.290;2023-06-14T00:05:08;15.70;1.00
429;DHT22;201;48.758;9.290;2023-06-14T00:07:38;15.70;1.00
429;DHT22;201;48.758;9.290;2023-06-14T00:10:08;15.70;1.00
429;DHT22;201;48.758;9.290;2023-06-14T00:12:34;15.60;1.00
429;DHT22;201;48.758;9.290;2023-06-14T00:14:59;15.60;1.00
429;DHT22;201;48.758;9.290;2023-06-14T00:17:27;15.50;1.00
429;DHT22;201;48.758;9.290;2023-06-14T00:19:56;15.40;1.00
429;DHT22;201;48.758;9.290;2023-06-14T00:22:22;15.20;1.00
429;DHT22;201;48.758;9.290;2023-06-14T00:24:52;15.20;1.00
429;DHT22;201;48.758;9.290;2023-06-14T00:27:18;15.10;1.00
429;DHT22;201;48.758;9.290;2023-06-14T00:29:43;14.90;1.00
429;DHT22;201;48.758;9.290;2023-06-14T00:32:09;14.90;1.00
429;DHT22;201;48.758;9.290;2023-06-14T00:34:35;14.80;1.00
429;DHT22;201;48.758;9.290;2023-06-14T00:37:01;14.70;1.00
429;DHT22;201;48.758;9.290;2023-06-14T00:39:26;14.60;1.00
429;DHT22;201;48.758;9.290;2023-06-14T00:41:52;14.60;1.00
429;DHT22;201;48.758;9.290;2023-06-14T00:44:18;14.70;1.00
429;DHT22;201;48.758;9.290;2023-06-14T00:46:45;14.70;1.00
429;DHT22;201;48.758;9.290;2023-06-14T00:49:12;14.70;1.00
429;DHT22;201;48.758;9.290;2023-06-14T00:51:39;14.60;1.00
429;DHT22;201;48.758;9.290;2023-06-14T00:54:05;14.60;1.00
429;DHT22;201;48.758;9.290;2023-06-14T00:56:30;14.60;1.00
429;DHT22;201;48.758;9.290;2023-06-14T00:58:56;14.70;1.00
429;DHT22;201;48.758;9.290;2023-06-14T01:01:23;14.60;1.00
429;DHT22;201;48.758;9.290;2023-06-14T01:03:49;14.60;1.00
429;DHT22;201;48.758;9.290;2023-06-14T01:09:15;14.50;1.00
429;DHT22;201;48.758;9.290;2023-06-14T01:11:53;14.50;1.00
429;DHT22;201;48.758;9.290;2023-06-14T01:14:21;14.50;1.00
429;DHT22;201;48.758;9.290;2023-06-14T01:16:47;14.50;1.00
429;DHT22;201;48.758;9.290;2023-06-14T01:19:15;14.40;1.00
429;DHT22;201;48.758;9.290;2023-06-14T01:21:41;14.30;1.00
429;DHT22;201;48.758;9.290;2023-06-14T01:24:10;14.30;1.00
429;DHT22;201;48.758;9.290;2023-06-14T01:26:38;14.20;1.00
429;DHT22;201;48.758;9.290;2023-06-14T01:29:04;14.10;1.00
429;DHT22;201;48.758;9.290;2023-06-14T01:31:31;14.00;1.00
429;DHT22;201;48.758;9.290;2023-06-14T01:34:06;13.90;1.00
429;DHT22;201;48.758;9.290;2023-06-14T01:36:32;13.90;1.00
429;DHT22;201;48.758;9.290;2023-06-14T01:38:59;13.90;1.00
429;DHT22;201;48.758;9.290;2023-06-14T01:41:25;13.80;1.00
429;DHT22;201;48.758;9.290;2023-06-14T01:43:52;13.80;1.00
429;DHT22;201;48.758;9.290;2023-06-14T01:46:18;13.70;1.00
429;DHT22;201;48.758;9.290;2023-06-14T01:48:45;13.70;1.00
429;DHT22;201;48.758;9.290;2023-06-14T01:51:10;13.70;1.00
429;DHT22;201;48.758;9.290;2023-06-14T01:53:36;13.60;1.00
429;DHT22;201;48.758;9.290;2023-06-14T01:56:01;13.70;1.00
429;DHT22;201;48.758;9.290;2023-06-14T01:58:27;13.60;1.00
429;DHT22;201;48.758;9.290;2023-06-14T02:00:53;13.60;1.00
429;DHT22;201;48.758;9.290;2023-06-14T02:03:21;13.60;1.00
429;DHT22;201;48.758;9.290;2023-06-14T02:05:46;13.60;1.00
429;DHT22;201;48.758;9.290;2023-06-14T02:08:12;13.60;1.00
429;DHT22;201;48.758;9.290;2023-06-14T02:10:38;13.60;1.00
429;DHT22;201;48.758;9.290;2023-06-14T02:13:03;13.60;1.00
429;DHT22;201;48.758;9.290;2023-06-14T02:15:29;13.50;1.00
429;DHT22;201;48.758;9.290;2023-06-14T02:18:00;13.50;1.00
429;DHT22;201;48.758;9.290;2023-06-14T02:20:25;13.50;1.00
429;DHT22;201;48.758;9.290;2023-06-14T02:22:51;13.60;1.00
429;DHT22;201;48.758;9.290;2023-06-14T02:25:16;13.50;1.00
429;DHT22;201;48.758;9.290;2023-06-14T02:27:42;13.40;1.00
429;DHT22;201;48.758;9.290;2023-06-14T02:30:08;13.40;1.00
429;DHT22;201;48.758;9.290;2023-06-14T02:32:33;13.40;1.00
429;DHT22;201;48.758;9.290;2023-06-14T02:35:02;13.40;1.00
429;DHT22;201;48.758;9.290;2023-06-14T02:37:28;13.40;1.00
429;DHT22;201;48.758;9.290;2023-06-14T02:39:53;13.40;1.00
429;DHT22;201;48.758;9.290;2023-06-14T02:42:19;13.40;1.00
429;DHT22;201;48.758;9.290;2023-06-14T02:44:45;13.30;1.00
429;DHT22;201;48.758;9.290;2023-06-14T02:47:12;13.20;1.00
429;DHT22;201;48.758;9.290;2023-06-14T02:49:37;13.30;1.00
429;DHT22;201;48.758;9.290;2023-06-14T02:52:03;13.20;1.00
429;DHT22;201;48.758;9.290;2023-06-14T02:54:28;13.20;1.00
429;DHT22;201;48.758;9.290;2023-06-14T02:56:54;13.20;1.00
429;DHT22;201;48.758;9.290;2023-06-14T02:59:19;13.20;1.00
429;DHT22;201;48.758;9.290;2023-06-14T03:01:46;13.20;1.00
429;DHT22;201;48.758;9.290;2023-06-14T03:04:12;13.10;1.00
429;DHT22;201;48.758;9.290;2023-06-14T03:06:37;13.00;1.00
429;DHT22;201;48.758;9.290;2023-06-14T03:09:04;13.00;1.00
429;DHT22;201;48.758;9.290;2023-06-14T03:11:31;12.90;1.00
429;DHT22;201;48.758;9.290;2023-06-14T03:13:56;12.90;1.00
429;DHT22;201;48.758;9.290;2023-06-14T03:16:22;12.80;1.00
429;DHT22;201;48.758;9.290;2023-06-14T03:18:50;12.90;1.00
429;DHT22;201;48.758;9.290;2023-06-14T03:21:15;13.00;1.00
429;DHT22;201;48.758;9.290;2023-06-14T03:23:42;13.00;1.00
429;DHT22;201;48.758;9.290;2023-06-14T03:26:07;13.10;1.00
429;DHT22;201;48.758;9.290;2023-06-14T03:28:34;13.10;1.00
429;DHT22;201;48.758;9.290;2023-06-14T03:31:00;13.10;1.00
429;DHT22;201;48.758;9.290;2023-06-14T03:33:25;13.10;1.00
429;DHT22;201;48.758;9.290;2023-06-14T03:35:51;13.10;1.00
429;DHT22;201;48.758;9.290;2023-06-14T03:38:17;13.10;1.00
429;DHT22;201;48.758;9.290;2023-06-14T03:40:42;13.00;1.00
429;DHT22;201;48.758;9.290;2023-06-14T03:43:08;13.10;1.00
429;DHT22;201;48.758;9.290;2023-06-14T03:45:34;13.00;1.00
429;DHT22;201;48.758;9.290;2023-06-14T03:47:59;13.10;1.00
429;DHT22;201;48.758;9.290;2023-06-14T03:50:26;13.10;1.00
429;DHT22;201;48.758;9.290;2023-06-14T03:52:52;13.10;1.00
429;DHT22;201;48.758;9.290;2023-06-14T03:55:18;13.00;1.00
429;DHT22;201;48.758;9.290;2023-06-14T03:57:44;13.10;1.00
429;DHT22;201;48.758;9.290;2023-06-14T04:00:10;13.20;1.00
429;DHT22;201;48.758;9.290;2023-06-14T04:02:37;13.20;1.00
429;DHT22;201;48.758;9.290;2023-06-14T04:05:03;13.20;1.00
429;DHT22;201;48.758;9.290;2023-06-14T04:07:28;13.20;1.00
429;DHT22;201;48.758;9.290;2023-06-14T04:09:55;13.20;1.00
429;DHT22;201;48.758;9.290;2023-06-14T04:12:20;13.20;1.00
429;DHT22;201;48.758;9.290;2023-06-14T04:14:46;13.30;1.00
429;DHT22;201;48.758;9.290;2023-06-14T04:17:12;13.30;1.00
429;DHT22;201;48.758;9.290;2023-06-14T04:19:37;13.40;1.00
429;DHT22;201;48.758;9.290;2023-06-14T04:22:03;13.40;1.00
429;DHT22;201;48.758;9.290;2023-06-14T04:24:29;13.50;1.00
429;DHT22;201;48.758;9.290;2023-06-14T04:26:58;13.50;1.00
429;DHT22;201;48.758;9.290;2023-06-14T04:29:24;13.50;1.00
429;DHT22;201;48.758;9.290;2023-06-14T04:31:53;13.60;1.00
429;DHT22;201;48.758;9.290;2023-06-14T04:34:18;13.70;1.00
429;DHT22;201;48.758;9.290;2023-06-14T04:36:44;13.80;1.00
429;DHT22;201;48.758;9.290;2023-06-14T04:39:22;13.90;1.00
429;DHT22;201;48.758;9.290;2023-06-14T04:41:48;14.00;1.00
429;DHT22;201;48.758;9.290;2023-06-14T04:44:17;14.10;1.00
429;DHT22;201;48.758;9.290;2023-06-14T04:46:43;14.20;1.00
429;DHT22;201;48.758;9.290;2023-06-14T04:49:13;14.20;1.00
429;DHT22;201;48.758;9.290;2023-06-14T04:51:41;14.40;1.00
429;DHT22;201;48.758;9.290;2023-06-14T04:54:08;14.40;1.00
429;DHT22;201;48.758;9.290;2023-06-14T04:56:37;14.50;1.00
429;DHT22;201;48.758;9.290;2023-06-14T04:59:03;14.60;1.00
429;DHT22;201;48.758;9.290;2023-06-14T05:01:30;14.90;1.00
429;DHT22;201;48.758;9.290;2023-06-14T05:03:57;15.20;1.00
429;DHT22;201;48.758;9.290;2023-06-14T05:06:23;15.40;1.00
429;DHT22;201;48.758;9.290;2023-06-14T05:08:49;15.70;1.00
429;DHT22;201;48.758;9.290;2023-06-14T05:11:14;16.00;1.00
429;DHT22;201;48.758;9.290;2023-06-14T05:13:42;16.50;1.00
429;DHT22;201;48.758;9.290;2023-06-14T05:16:07;16.80;1.00
429;DHT22;201;48.758;9.290;2023-06-14T05:18:33;16.80;1.00
429;DHT22;201;48.758;9.290;2023-06-14T05:21:00;16.90;1.00
429;DHT22;201;48.758;9.290;2023-06-14T05:23:26;17.00;1.00
429;DHT22;201;48.758;9.290;2023-06-14T05:25:52;17.00;1.00
429;DHT22;201;48.758;9.290;2023-06-14T05:28:17;17.10;1.00
429;DHT22;201;48.758;9.290;2023-06-14T05:30:43;17.30;1.00
429;DHT22;201;48.758;9.290;2023-06-14T05:33:09;17.20;1.00
429;DHT22;201;48.758;9.290;2023-06-14T05:35:34;17.20;1.00
429;DHT22;201;48.758;9.290;2023-06-14T05:38:00;17.20;1.00
429;DHT22;201;48.758;9.290;2023-06-14T05:40:26;17.60;1.00
429;DHT22;201;48.758;9.290;2023-06-14T05:42:51;18.30;1.00
429;DHT22;201;48.758;9.290;2023-06-14T05:45:17;19.10;1.00
429;DHT22;201;48.758;9.290;2023-06-14T05:47:43;20.20;1.00
429;DHT22;201;48.758;9.290;2023-06-14T05:50:09;20.60;1.00
429;DHT22;201;48.758;9.290;2023-06-14T05:52:35;21.30;1.00
429;DHT22;201;48.758;9.290;2023-06-14T05:55:02;22.10;1.00
429;DHT22;201;48.758;9.290;2023-06-14T05:57:28;23.20;1.00
429;DHT22;201;48.758;9.290;2023-06-14T05:59:54;23.90;1.00
429;DHT22;201;48.758;9.290;2023-06-14T06:02:20;24.80;1.00
429;DHT22;201;48.758;9.290;2023-06-14T06:04:45;25.10;1.00
429;DHT22;201;48.758;9.290;2023-06-14T06:07:11;25.20;1.00
429;DHT22;201;48.758;9.290;2023-06-14T06:09:36;24.70;1.00
429;DHT22;201;48.758;9.290;2023-06-14T06:12:02;24.40;1.00
429;DHT22;201;48.758;9.290;2023-06-14T06:14:28;23.70;1.00
429;DHT22;201;48.758;9.290;2023-06-14T06:16:54;23.50;1.00
429;DHT22;201;48.758;9.290;2023-06-14T06:19:20;23.90;1.00
429;DHT22;201;48.758;9.290;2023-06-14T06:21:45;24.50;1.00
429;DHT22;201;48.758;9.290;2023-06-14T06:24:11;25.30;1.00
429;DHT22;201;48.758;9.290;2023-06-14T06:26:36;25.90;1.00
429;DHT22;201;48.758;9.290;2023-06-14T06:29:02;27.20;1.00
429;DHT22;201;48.758;9.290;2023-06-14T06:31:28;28.30;1.00
429;DHT22;201;48.758;9.290;2023-06-14T06:33:54;28.80;1.00
429;DHT22;201;48.758;9.290;2023-06-14T06:36:20;28.20;1.00
429;DHT22;201;48.758;9.290;2023-06-14T06:38:47;28.30;1.00
429;DHT22;201;48.758;9.290;2023-06-14T06:41:13;28.80;1.00
429;DHT22;201;48.758;9.290;2023-06-14T06:43:38;29.30;1.00
429;DHT22;201;48.758;9.290;2023-06-14T06:46:04;30.20;1.00
429;DHT22;201;48.758;9.290;2023-06-14T06:48:29;31.30;1.00
429;DHT22;201;48.758;9.290;2023-06-14T06:50:55;31.70;1.00
429;DHT22;201;48.758;9.290;2023-06-14T06:53:20;31.90;1.00
429;DHT22;201;48.758;9.290;2023-06-14T06:55:46;32.00;1.00
429;DHT22;201;48.758;9.290;2023-06-14T06:58:12;31.90;1.00
429;DHT22;201;48.758;9.290;2023-06-14T07:00:38;32.20;1.00
429;DHT22;201;48.758;9.290;2023-06-14T07:03:03;32.90;1.00
429;DHT22;201;48.758;9.290;2023-06-14T07:05:29;31.90;1.00
429;DHT22;201;48.758;9.290;2023-06-14T07:07:55;32.00;1.00
429;DHT22;201;48.758;9.290;2023-06-14T07:10:21;33.20;1.00
429;DHT22;201;48.758;9.290;2023-06-14T07:12:46;33.30;1.00
429;DHT22;201;48.758;9.290;2023-06-14T07:15:12;32.40;1.00
429;DHT22;201;48.758;9.290;2023-06-14T07:17:37;32.30;1.00
429;DHT22;201;48.758;9.290;2023-06-14T07:20:04;33.50;1.00
429;DHT22;201;48.758;9.290;2023-06-14T07:22:49;32.60;1.00
429;DHT22;201;48.758;9.290;2023-06-14T07:25:15;30.90;1.00
429;DHT22;201;48.758;9.290;2023-06-14T07:27:42;31.40;1.00
429;DHT22;201;48.758;9.290;2023-06-14T07:30:08;32.70;1.00
429;DHT22;201;48.758;9.290;2023-06-14T07:32:34;33.90;1.00
429;DHT22;201;48.758;9.290;2023-06-14T07:34:59;34.50;1.00
429;DHT22;201;48.758;9.290;2023-06-14T07:37:25;35.10;1.00
429;DHT22;201;48.758;9.290;2023-06-14T07:39:50;35.60;1.00
429;DHT22;201;48.758;9.290;2023-06-14T07:42:16;35.80;1.00
429;DHT22;201;48.758;9.290;2023-06-14T07:44:41;36.10;1.00
429;DHT22;201;48.758;9.290;2023-06-14T07:47:07;37.10;1.00
429;DHT22;201;48.758;9.290;2023-06-14T07:49:32;38.10;1.00
429;DHT22;201;48.758;9.290;2023-06-14T07:51:58;37.10;1.00
429;DHT22;201;48.758;9.290;2023-06-14T07:54:24;36.30;1.00
429;DHT22;201;48.758;9.290;2023-06-14T07:56:51;36.00;1.00
429;DHT22;201;48.758;9.290;2023-06-14T07:59:17;34.00;1.00
429;DHT22;201;48.758;9.290;2023-06-14T08:01:43;33.60;1.00
429;DHT22;201;48.758;9.290;2023-06-14T08:04:13;35.00;1.00
429;DHT22;201;48.758;9.290;2023-06-14T08:06:38;35.90;1.00
429;DHT22;201;48.758;9.290;2023-06-14T08:09:04;34.50;1.00
429;DHT22;201;48.758;9.290;2023-06-14T08:11:30;33.80;1.00
429;DHT22;201;48.758;9.290;2023-06-14T08:13:56;33.00;1.00
429;DHT22;201;48.758;9.290;2023-06-14T08:16:22;32.00;1.00
429;DHT22;201;48.758;9.290;2023-06-14T08:18:48;32.10;1.00
429;DHT22;201;48.758;9.290;2023-06-14T08:21:13;34.20;1.00
429;DHT22;201;48.758;9.290;2023-06-14T08:23:40;35.80;1.00
429;DHT22;201;48.758;9.290;2023-06-14T08:26:07;37.00;1.00
429;DHT22;201;48.758;9.290;2023-06-14T08:28:32;37.30;1.00
429;DHT22;201;48.758;9.290;2023-06-14T08:30:58;39.20;1.00
429;DHT22;201;48.758;9.290;2023-06-14T08:33:23;40.10;1.00
429;DHT22;201;48.758;9.290;2023-06-14T08:35:49;39.10;1.00
429;DHT22;201;48.758;9.290;2023-06-14T08:38:14;39.50;1.00
429;DHT22;201;48.758;9.290;2023-06-14T08:40:41;37.20;1.00
429;DHT22;201;48.758;9.290;2023-06-14T08:43:07;36.30;1.00
429;DHT22;201;48.758;9.290;2023-06-14T08:45:33;35.20;1.00
429;DHT22;201;48.758;9.290;2023-06-14T08:47:59;35.70;1.00
429;DHT22;201;48.758;9.290;2023-06-14T08:50:27;35.60;1.00
429;DHT22;201;48.758;9.290;2023-06-14T08:52:57;35.80;1.00
429;DHT22;201;48.758;9.290;2023-06-14T08:55:27;35.70;1.00
429;DHT22;201;48.758;9.290;2023-06-14T08:57:57;36.50;1.00
429;DHT22;201;48.758;9.290;2023-06-14T09:00:26;38.50;1.00
429;DHT22;201;48.758;9.290;2023-06-14T09:02:53;38.70;1.00
429;DHT22;201;48.758;9.290;2023-06-14T09:05:27;39.80;1.00
429;DHT22;201;48.758;9.290;2023-06-14T09:07:54;40.70;1.00
429;DHT22;201;48.758;9.290;2023-06-14T09:10:27;38.40;1.00
429;DHT22;201;48.758;9.290;2023-06-14T09:12:53;36.80;1.00
429;DHT22;201;48.758;9.290;2023-06-14T09:15:18;39.30;1.00
429;DHT22;201;48.758;9.290;2023-06-14T09:17:44;40.50;1.00
429;DHT22;201;48.758;9.290;2023-06-14T09:20:10;39.10;1.00
429;DHT22;201;48.758;9.290;2023-06-14T09:22:37;36.20;1.00
429;DHT22;201;48.758;9.290;2023-06-14T09:25:03;36.10;1.00
429;DHT22;201;48.758;9.290;2023-06-14T09:27:30;37.10;1.00
429;DHT22;201;48.758;9.290;2023-06-14T09:29:55;37.70;1.00
429;DHT22;201;48.758;9.290;2023-06-14T09:32:21;37.40;1.00
429;DHT22;201;48.758;9.290;2023-06-14T09:34:47;37.90;1.00
429;DHT22;201;48.758;9.290;2023-06-14T09:37:13;38.00;1.00
429;DHT22;201;48.758;9.290;2023-06-14T09:39:51;39.40;1.00
429;DHT22;201;48.758;9.290;2023-06-14T09:42:17;36.10;1.00
429;DHT22;201;48.758;9.290;2023-06-14T09:44:49;34.10;1.00
429;DHT22;201;48.758;9.290;2023-06-14T09:47:18;32.90;1.00
429;DHT22;201;48.758;9.290;2023-06-14T09:49:44;33.70;1.00
429;DHT22;201;48.758;9.290;2023-06-14T09:52:21;35.50;1.00
429;DHT22;201;48.758;9.290;2023-06-14T09:54:47;38.30;1.00
429;DHT22;201;48.758;9.290;2023-06-14T09:57:15;38.10;1.00
429;DHT22;201;48.758;9.290;2023-06-14T09:59:43;38.60;1.00
429;DHT22;201;48.758;9.290;2023-06-14T10:02:18;37.90;1.00
429;DHT22;201;48.758;9.290;2023-06-14T10:04:53;39.90;1.00
429;DHT22;201;48.758;9.290;2023-06-14T10:07:23;41.60;1.00
429;DHT22;201;48.758;9.290;2023-06-14T10:09:53;38.80;1.00
429;DHT22;201;48.758;9.290;2023-06-14T10:12:18;36.00;1.00
429;DHT22;201;48.758;9.290;2023-06-14T10:14:51;35.90;1.00
429;DHT22;201;48.758;9.290;2023-06-14T10:20:35;37.90;1.00
429;DHT22;201;48.758;9.290;2023-06-14T10:23:13;39.30;1.00
429;DHT22;201;48.758;9.290;2023-06-14T10:25:42;38.30;1.00
429;DHT22;201;48.758;9.290;2023-06-14T10:28:21;38.30;1.00
429;DHT22;201;48.758;9.290;2023-06-14T10:36:35;40.00;1.00
429;DHT22;201;48.758;9.290;2023-06-14T10:39:05;37.20;1.00
429;DHT22;201;48.758;9.290;2023-06-14T10:41:34;34.40;1.00
429;DHT22;201;48.758;9.290;2023-06-14T10:49:16;29.80;1.00
429;DHT22;201;48.758;9.290;2023-06-14T10:51:50;29.00;1.00
429;DHT22;201;48.758;9.290;2023-06-14T10:54:17;27.80;1.00
429;DHT22;201;48.758;9.290;2023-06-14T10:56:47;26.50;1.00
429;DHT22;201;48.758;9.290;2023-06-14T10:59:13;25.60;1.00
429;DHT22;201;48.758;9.290;2023-06-14T11:04:51;25.00;1.00
429;DHT22;201;48.758;9.290;2023-06-14T11:07:39;25.30;1.00
429;DHT22;201;48.758;9.290;2023-06-14T11:10:34;25.80;1.00
429;DHT22;201;48.758;9.290;2023-06-14T11:13:01;26.10;1.00
429;DHT22;201;48.758;9.290;2023-06-14T11:15:29;25.60;1.00
429;DHT22;201;48.758;9.290;2023-06-14T11:17:55;24.90;1.00
429;DHT22;201;48.758;9.290;2023-06-14T11:20:25;24.60;1.00
429;DHT22;201;48.758;9.290;2023-06-14T11:22:51;24.90;1.00
429;DHT22;201;48.758;9.290;2023-06-14T11:25:17;25.20;1.00
429;DHT22;201;48.758;9.290;2023-06-14T11:27:43;25.80;1.00
429;DHT22;201;48.758;9.290;2023-06-14T11:30:09;26.20;1.00
429;DHT22;201;48.758;9.290;2023-06-14T11:32:35;26.70;1.00
429;DHT22;201;48.758;9.290;2023-06-14T11:35:02;26.80;1.00
429;DHT22;201;48.758;9.290;2023-06-14T11:37:28;26.60;1.00
429;DHT22;201;48.758;9.290;2023-06-14T11:39:59;26.70;1.00
429;DHT22;201;48.758;9.290;2023-06-14T11:42:26;26.00;1.00
429;DHT22;201;48.758;9.290;2023-06-14T11:44:53;25.80;1.00
429;DHT22;201;48.758;9.290;2023-06-14T11:47:19;25.00;1.00
429;DHT22;201;48.758;9.290;2023-06-14T11:49:46;24.80;1.00
429;DHT22;201;48.758;9.290;2023-06-14T11:52:11;24.90;1.00
429;DHT22;201;48.758;9.290;2023-06-14T11:54:37;24.70;1.00
429;DHT22;201;48.758;9.290;2023-06-14T11:57:04;24.50;1.00
429;DHT22;201;48.758;9.290;2023-06-14T11:59:30;24.50;1.00
429;DHT22;201;48.758;9.290;2023-06-14T12:01:56;24.60;1.00
429;DHT22;201;48.758;9.290;2023-06-14T12:04:27;24.80;1.00
429;DHT22;201;48.758;9.290;2023-06-14T12:06:52;24.90;1.00
429;DHT22;201;48.758;9.290;2023-06-14T12:09:21;25.00;1.00
429;DHT22;201;48.758;9.290;2023-06-14T12:11:49;24.90;1.00
429;DHT22;201;48.758;9.290;2023-06-14T12:14:15;24.70;1.00
429;DHT22;201;48.758;9.290;2023-06-14T12:16:41;25.10;1.00
429;DHT22;201;48.758;9.290;2023-06-14T12:19:17;25.50;1.00
429;DHT22;201;48.758;9.290;2023-06-14T12:21:46;26.00;1.00
429;DHT22;201;48.758;9.290;2023-06-14T12:24:13;26.30;1.00
429;DHT22;201;48.758;9.290;2023-06-14T12:26:39;26.10;1.00
429;DHT22;201;48.758;9.290;2023-06-14T12:29:06;26.40;1.00
429;DHT22;201;48.758;9.290;2023-06-14T12:31:32;26.80;1.00
429;DHT22;201;48.758;9.290;2023-06-14T12:33:58;26.50;1.00
429;DHT22;201;48.758;9.290;2023-06-14T12:36:24;26.40;1.00
429;DHT22;201;48.758;9.290;2023-06-14T12:38:50;25.80;1.00
429;DHT22;201;48.758;9.290;2023-06-14T12:41:19;25.30;1.00
429;DHT22;201;48.758;9.290;2023-06-14T12:43:46;25.00;1.00
429;DHT22;201;48.758;9.290;2023-06-14T12:46:12;24.60;1.00
429;DHT22;201;48.758;9.290;2023-06-14T12:48:37;24.60;1.00
429;DHT22;201;48.758;9.290;2023-06-14T12:51:03;24.70;1.00
429;DHT22;201;48.758;9.290;2023-06-14T12:53:28;25.10;1.00
429;DHT22;201;48.758;9.290;2023-06-14T12:55:54;25.10;1.00
429;DHT22;201;48.758;9.290;2023-06-14T12:58:20;25.10;1.00
429;DHT22;201;48.758;9.290;2023-06-14T13:00:46;25.20;1.00
429;DHT22;201;48.758;9.290;2023-06-14T13:03:12;25.50;1.00
429;DHT22;201;48.758;9.290;2023-06-14T13:05:37;26.00;1.00
429;DHT22;201;48.758;9.290;2023-06-14T13:08:06;26.60;1.00
429;DHT22;201;48.758;9.290;2023-06-14T13:10:33;26.50;1.00
429;DHT22;201;48.758;9.290;2023-06-14T13:12:59;26.60;1.00
429;DHT22;201;48.758;9.290;2023-06-14T13:15:25;26.60;1.00
429;DHT22;201;48.758;9.290;2023-06-14T13:17:51;25.90;1.00
429;DHT22;201;48.758;9.290;2023-06-14T13:20:17;25.50;1.00
429;DHT22;201;48.758;9.290;2023-06-14T13:22:42;25.20;1.00
429;DHT22;201;48.758;9.290;2023-06-14T13:25:08;24.70;1.00
429;DHT22;201;48.758;9.290;2023-06-14T13:27:34;24.40;1.00
429;DHT22;201;48.758;9.290;2023-06-14T13:29:59;24.40;1.00
429;DHT22;201;48.758;9.290;2023-06-14T13:32:25;24.30;1.00
429;DHT22;201;48.758;9.290;2023-06-14T13:34:51;23.90;1.00
429;DHT22;201;48.758;9.290;2023-06-14T13:37:17;23.60;1.00
429;DHT22;201;48.758;9.290;2023-06-14T13:39:42;23.60;1.00
429;DHT22;201;48.758;9.290;2023-06-14T13:42:08;23.40;1.00
429;DHT22;201;48.758;9.290;2023-06-14T13:44:33;23.50;1.00
429;DHT22;201;48.758;9.290;2023-06-14T13:47:00;23.50;1.00
429;DHT22;201;48.758;9.290;2023-06-14T13:49:25;23.40;1.00
429;DHT22;201;48.758;9.290;2023-06-14T13:51:51;23.20;1.00
429;DHT22;201;48.758;9.290;2023-06-14T13:54:19;23.20;1.00
429;DHT22;201;48.758;9.290;2023-06-14T13:56:45;23.00;1.00
429;DHT22;201;48.758;9.290;2023-06-14T13:59:11;23.10;1.00
429;DHT22;201;48.758;9.290;2023-06-14T14:01:37;23.30;1.00
429;DHT22;201;48.758;9.290;2023-06-14T14:04:03;23.30;1.00
429;DHT22;201;48.758;9.290;2023-06-14T14:06:28;23.30;1.00
429;DHT22;201;48.758;9.290;2023-06-14T14:08:54;23.30;1.00
429;DHT22;201;48.758;9.290;2023-06-14T14:11:20;23.30;1.00
429;DHT22;201;48.758;9.290;2023-06-14T14:13:46;23.30;1.00
429;DHT22;201;48.758;9.290;2023-06-14T14:16:13;23.30;1.00
429;DHT22;201;48.758;9.290;2023-06-14T14:18:38;23.20;1.00
429;DHT22;201;48.758;9.290;2023-06-14T14:21:04;23.10;1.00
429;DHT22;201;48.758;9.290;2023-06-14T14:23:30;23.20;1.00
429;DHT22;201;48.758;9.290;2023-06-14T14:25:56;23.50;1.00
429;DHT22;201;48.758;9.290;2023-06-14T14:28:22;23.70;1.00
429;DHT22;201;48.758;9.290;2023-06-14T14:30:47;23.90;1.00
429;DHT22;201;48.758;9.290;2023-06-14T14:33:16;24.10;1.00
429;DHT22;201;48.758;9.290;2023-06-14T14:35:43;24.30;1.00
429;DHT22;201;48.758;9.290;2023-06-14T14:38:11;24.50;1.00
429;DHT22;201;48.758;9.290;2023-06-14T14:40:37;24.80;1.00
429;DHT22;201;48.758;9.290;2023-06-14T14:43:02;24.70;1.00
429;DHT22;201;48.758;9.290;2023-06-14T14:45:28;24.70;1.00
429;DHT22;201;48.758;9.290;2023-06-14T14:47:53;24.80;1.00
429;DHT22;201;48.758;9.290;2023-06-14T14:50:19;25.00;1.00
429;DHT22;201;48.758;9.290;2023-06-14T14:52:44;25.10;1.00
429;DHT22;201;48.758;9.290;2023-06-14T14:55:11;25.00;1.00
429;DHT22;201;48.758;9.290;2023-06-14T14:57:36;24.70;1.00
429;DHT22;201;48.758;9.290;2023-06-14T15:00:03;24.60;1.00
429;DHT22;201;48.758;9.290;2023-06-14T15:02:29;24.50;1.00
429;DHT22;201;48.758;9.290;2023-06-14T15:04:54;24.20;1.00
429;DHT22;201;48.758;9.290;2023-06-14T15:07:22;24.00;1.00
429;DHT22;201;48.758;9.290;2023-06-14T15:09:48;23.80;1.00
429;DHT22;201;48.758;9.290;2023-06-14T15:12:15;23.80;1.00
429;DHT22;201;48.758;9.290;2023-06-14T15:14:41;23.60;1.00
429;DHT22;201;48.758;9.290;2023-06-14T15:17:06;23.40;1.00
429;DHT22;201;48.758;9.290;2023-06-14T15:19:32;23.30;1.00
429;DHT22;201;48.758;9.290;2023-06-14T15:21:59;23.10;1.00
429;DHT22;201;48.758;9.290;2023-06-14T15:24:25;23.00;1.00
429;DHT22;201;48.758;9.290;2023-06-14T15:26:50;23.00;1.00
429;DHT22;201;48.758;9.290;2023-06-14T15:29:16;23.20;1.00
429;DHT22;201;48.758;9.290;2023-06-14T15:31:41;23.40;1.00
429;DHT22;201;48.758;9.290;2023-06-14T15:34:07;23.70;1.00
429;DHT22;201;48.758;9.290;2023-06-14T15:36:32;24.00;1.00
429;DHT22;201;48.758;9.290;2023-06-14T15:38:58;24.20;1.00
429;DHT22;201;48.758;9.290;2023-06-14T15:41:23;24.40;1.00
429;DHT22;201;48.758;9.290;2023-06-14T15:43:49;24.30;1.00
429;DHT22;201;48.758;9.290;2023-06-14T15:46:14;24.40;1.00
429;DHT22;201;48.758;9.290;2023-06-14T15:48:40;24.40;1.00
429;DHT22;201;48.758;9.290;2023-06-14T15:51:06;24.40;1.00
429;DHT22;201;48.758;9.290;2023-06-14T15:53:31;24.50;1.00
429;DHT22;201;48.758;9.290;2023-06-14T15:55:56;24.50;1.00
429;DHT22;201;48.758;9.290;2023-06-14T15:58:22;24.60;1.00
429;DHT22;201;48.758;9.290;2023-06-14T16:00:48;24.60;1.00
429;DHT22;201;48.758;9.290;2023-06-14T16:03:13;24.70;1.00
429;DHT22;201;48.758;9.290;2023-06-14T16:05:38;24.70;1.00
429;DHT22;201;48.758;9.290;2023-06-14T16:08:04;24.70;1.00
429;DHT22;201;48.758;9.290;2023-06-14T16:10:30;24.70;1.00
429;DHT22;201;48.758;9.290;2023-06-14T16:12:56;24.70;1.00
429;DHT22;201;48.758;9.290;2023-06-14T16:15:21;24.80;1.00
429;DHT22;201;48.758;9.290;2023-06-14T16:17:47;24.70;1.00
429;DHT22;201;48.758;9.290;2023-06-14T16:20:12;24.60;1.00
429;DHT22;201;48.758;9.290;2023-06-14T16:22:38;24.60;1.00
429;DHT22;201;48.758;9.290;2023-06-14T16:25:04;24.70;1.00
429;DHT22;201;48.758;9.290;2023-06-14T16:27:30;24.70;1.00
429;DHT22;201;48.758;9.290;2023-06-14T16:29:55;24.60;1.00
429;DHT22;201;48.758;9.290;2023-06-14T16:32:21;24.40;1.00
429;DHT22;201;48.758;9.290;2023-06-14T16:34:46;24.20;1.00
429;DHT22;201;48.758;9.290;2023-06-14T16:37:12;24.10;1.00
429;DHT22;201;48.758;9.290;2023-06-14T16:39:37;24.30;1.00
429;DHT22;201;48.758;9.290;2023-06-14T16:42:03;24.10;1.00
429;DHT22;201;48.758;9.290;2023-06-14T16:44:29;24.00;1.00
429;DHT22;201;48.758;9.290;2023-06-14T16:46:54;24.00;1.00
429;DHT22;201;48.758;9.290;2023-06-14T16:49:20;24.00;1.00
429;DHT22;201;48.758;9.290;2023-06-14T16:51:45;23.90;1.00
429;DHT22;201;48.758;9.290;2023-06-14T16:54:11;23.90;1.00
429;DHT22;201;48.758;9.290;2023-06-14T16:56:36;24.00;1.00
429;DHT22;201;48.758;9.290;2023-06-14T16:59:02;23.80;1.00
429;DHT22;201;48.758;9.290;2023-06-14T17:01:28;23.60;1.00
429;DHT22;201;48.758;9.290;2023-06-14T17:03:54;23.40;1.00
429;DHT22;201;48.758;9.290;2023-06-14T17:06:19;23.20;1.00